Time;durP1;ratioP1;P1;durP2;ratioP2;P2;SDS_P1;SDS_P2;PMS_P1;PMS_P2;Temp;Humidity;BMP_temperature;BMP_pressure;BME280_temperature;BME280_humidity;BME280_pressure;Samples;Min_cycle;Max_cycle;Signal;HPM_P1;HPM_P2
2022/05/30 00:02:34;;;;;;;6.75;2.05;;;9.70;99.90;;;;;;7362178;32;20499;-59
2022/05/30 00:06:36;;;;;;;9.82;3.62;;;9.70;99.90;;;;;;7359066;32;20417;-59
2022/05/30 00:10:37;;;;;;;11.23;4.18;;;9.60;99.90;;;;;;7346664;32;20237;-59
2022/05/30 00:14:39;;;;;;;9.00;3.03;;;9.50;99.90;;;;;;7362534;32;20103;-59
2022/05/30 00:18:41;;;;;;;9.70;1.75;;;9.50;99.90;;;;;;7363137;32;20241;-59
2022/05/30 00:22:43;;;;;;;9.05;1.60;;;9.50;99.90;;;;;;7370419;32;20793;-59
2022/05/30 00:26:45;;;;;;;4.72;1.62;;;9.50;99.90;;;;;;7344322;32;20107;-60
2022/05/30 00:30:48;;;;;;;4.60;1.52;;;9.60;99.90;;;;;;7361490;32;20545;-60
2022/05/30 00:34:50;;;;;;;9.45;1.73;;;9.60;99.90;;;;;;7367569;32;20106;-59
2022/05/30 00:38:52;;;;;;;8.63;1.52;;;9.60;99.90;;;;;;7367231;32;20602;-59
2022/05/30 00:42:53;;;;;;;6.90;1.62;;;9.60;99.90;;;;;;7348670;32;20198;-59
2022/05/30 00:46:55;;;;;;;5.35;1.83;;;9.60;99.90;;;;;;7363004;32;20103;-59
2022/05/30 00:51:06;;;;;;;8.85;1.60;;;9.50;99.90;;;;;;7360743;32;20186;-59
2022/05/30 00:55:21;;;;;;;4.80;1.83;;;9.50;99.90;;;;;;7360170;32;20121;-59
2022/05/30 00:59:23;;;;;;;9.15;1.60;;;9.50;99.90;;;;;;7357570;32;20228;-59
2022/05/30 01:07:47;;;;;;;5.43;2.78;;;9.40;99.90;;;;;;7365052;32;20103;-59
2022/05/30 01:12:02;;;;;;;9.40;2.50;;;9.30;99.90;;;;;;7354519;32;20095;-59
2022/05/30 01:16:05;;;;;;;8.82;2.97;;;9.30;99.90;;;;;;7362991;32;20114;-59
2022/05/30 01:20:22;;;;;;;7.47;2.50;;;9.30;99.90;;;;;;7346848;32;20134;-60
2022/05/30 01:25:01;;;;;;;4.65;2.15;;;9.20;99.90;;;;;;7363249;32;20102;-60
2022/05/30 01:29:06;;;;;;;8.23;2.83;;;9.10;99.90;;;;;;7358468;32;20103;-60
2022/05/30 01:33:08;;;;;;;4.30;1.90;;;9.10;99.90;;;;;;7358255;32;20494;-60
2022/05/30 01:37:09;;;;;;;8.27;2.80;;;9.10;99.90;;;;;;7356179;32;20176;-60
2022/05/30 01:41:11;;;;;;;5.62;1.90;;;9.10;99.90;;;;;;7357388;32;20800;-60
2022/05/30 01:45:12;;;;;;;7.53;2.45;;;9.10;99.90;;;;;;7365277;32;20122;-59
2022/05/30 01:49:14;;;;;;;5.10;1.77;;;9.20;99.90;;;;;;7361897;32;20141;-60
2022/05/30 01:53:16;;;;;;;5.57;2.03;;;9.20;99.90;;;;;;7358381;32;20098;-61
2022/05/30 01:57:17;;;;;;;7.50;2.22;;;9.20;99.90;;;;;;7362109;32;20118;-60
2022/05/30 02:01:23;;;;;;;4.20;2.00;;;9.20;99.90;;;;;;7362852;32;20202;-60
2022/05/30 02:05:25;;;;;;;7.70;2.42;;;9.10;99.90;;;;;;7364004;32;20091;-60
2022/05/30 02:09:26;;;;;;;7.93;2.53;;;9.10;99.90;;;;;;7349454;32;20115;-60
2022/05/30 02:13:28;;;;;;;7.15;2.10;;;8.90;99.90;;;;;;7355534;32;20141;-60
2022/05/30 02:17:33;;;;;;;5.93;2.40;;;8.90;99.90;;;;;;7367545;32;20126;-59
2022/05/30 02:21:35;;;;;;;9.02;2.22;;;9.00;99.90;;;;;;7353289;32;20209;-60
2022/05/30 02:25:36;;;;;;;6.78;2.22;;;8.80;99.90;;;;;;7357804;32;20116;-59
2022/05/30 02:29:39;;;;;;;16.50;2.30;;;8.80;99.90;;;;;;7343509;32;20121;-60
2022/05/30 02:38:01;;;;;;;7.80;1.98;;;8.80;99.90;;;;;;7364239;32;20194;-60
2022/05/30 02:42:04;;;;;;;7.03;1.60;;;8.80;99.90;;;;;;7363572;32;20156;-60
2022/05/30 02:46:05;;;;;;;6.35;1.85;;;8.80;99.90;;;;;;7358833;32;20111;-60
2022/05/30 02:50:08;;;;;;;6.80;2.10;;;8.70;99.90;;;;;;7364027;32;20573;-60
2022/05/30 02:54:11;;;;;;;6.32;1.90;;;8.70;99.90;;;;;;7365211;32;20103;-59
2022/05/30 02:58:13;;;;;;;8.27;1.92;;;8.80;99.90;;;;;;7350211;32;20106;-60
2022/05/30 03:02:14;;;;;;;7.93;2.10;;;8.80;99.90;;;;;;7353122;32;20145;-60
2022/05/30 03:06:16;;;;;;;10.52;2.08;;;8.70;99.90;;;;;;7353756;32;20103;-60
2022/05/30 03:10:18;;;;;;;8.27;2.15;;;8.70;99.90;;;;;;7342900;32;20477;-61
2022/05/30 03:14:20;;;;;;;6.43;1.70;;;8.70;99.90;;;;;;7345999;32;20106;-59
2022/05/30 03:18:22;;;;;;;7.30;1.83;;;8.70;99.90;;;;;;7356941;32;20126;-60
2022/05/30 03:22:23;;;;;;;10.45;1.92;;;8.70;99.90;;;;;;7359604;32;20244;-59
2022/05/30 03:26:25;;;;;;;7.53;1.90;;;8.60;99.90;;;;;;7360301;32;20144;-60
2022/05/30 03:30:27;;;;;;;7.47;1.87;;;8.60;99.90;;;;;;7358272;32;20185;-61
2022/05/30 03:34:29;;;;;;;6.45;1.92;;;8.40;99.90;;;;;;7361229;32;20534;-60
2022/05/30 03:38:31;;;;;;;8.55;1.80;;;8.40;99.90;;;;;;7341719;32;20190;-61
2022/05/30 03:42:33;;;;;;;11.05;1.83;;;8.40;99.90;;;;;;7359046;32;20233;-59
2022/05/30 03:46:34;;;;;;;5.28;1.70;;;8.40;99.90;;;;;;7359915;32;20098;-60
2022/05/30 03:50:39;;;;;;;8.20;1.87;;;8.40;99.90;;;;;;7363773;32;20165;-59
2022/05/30 03:54:41;;;;;;;7.43;1.55;;;8.40;99.90;;;;;;7357242;32;20204;-60
2022/05/30 03:58:43;;;;;;;6.05;1.45;;;8.40;99.90;;;;;;7360002;32;20513;-60
2022/05/30 04:02:47;;;;;;;4.80;1.87;;;8.40;99.90;;;;;;7359169;32;20746;-61
2022/05/30 04:06:49;;;;;;;7.35;1.87;;;8.40;99.90;;;;;;7364859;32;20168;-60
2022/05/30 04:10:51;;;;;;;9.52;1.60;;;8.50;99.90;;;;;;7363553;32;20193;-61
2022/05/30 04:14:54;;;;;;;11.05;1.50;;;8.50;99.90;;;;;;7367126;32;20103;-61
2022/05/30 04:18:56;;;;;;;7.82;2.12;;;8.60;99.90;;;;;;7361395;32;20126;-59
2022/05/30 04:22:57;;;;;;;6.25;1.25;;;8.60;99.90;;;;;;7354652;32;20095;-60
2022/05/30 04:26:59;;;;;;;8.25;1.73;;;8.60;99.90;;;;;;7365473;32;20099;-60
2022/05/30 04:31:12;;;;;;;9.48;1.75;;;8.70;99.90;;;;;;7369894;32;20270;-60
2022/05/30 04:35:14;;;;;;;12.45;1.85;;;8.80;99.90;;;;;;7365748;32;20106;-60
2022/05/30 04:39:16;;;;;;;10.77;1.90;;;8.80;99.90;;;;;;7362775;32;20122;-60
2022/05/30 04:43:18;;;;;;;12.37;2.25;;;8.80;99.90;;;;;;7345581;32;20107;-60
2022/05/30 04:47:20;;;;;;;8.23;1.85;;;8.90;99.90;;;;;;7357403;32;20095;-64
2022/05/30 04:51:21;;;;;;;12.40;1.67;;;9.00;99.90;;;;;;7360610;32;20212;-63
2022/05/30 04:55:23;;;;;;;9.63;1.92;;;9.10;99.90;;;;;;7354357;32;20123;-64
2022/05/30 04:59:26;;;;;;;8.57;1.55;;;9.10;99.90;;;;;;7353261;32;20232;-64
2022/05/30 05:03:30;;;;;;;13.62;2.55;;;9.10;99.90;;;;;;7359316;32;20514;-64
2022/05/30 05:07:43;;;;;;;13.30;2.42;;;9.20;99.90;;;;;;7339596;32;20867;-62
2022/05/30 05:11:47;;;;;;;10.02;1.77;;;9.30;99.90;;;;;;7351057;32;20123;-63
2022/05/30 05:15:48;;;;;;;13.95;4.68;;;9.30;99.90;;;;;;7359061;32;20187;-63
2022/05/30 05:19:50;;;;;;;10.50;2.00;;;9.30;99.90;;;;;;7345595;32;20145;-64
2022/05/30 05:23:52;;;;;;;8.20;1.85;;;9.50;99.90;;;;;;7363889;32;20205;-61
2022/05/30 05:27:54;;;;;;;9.10;1.75;;;9.60;99.90;;;;;;7356815;32;20507;-64
2022/05/30 05:31:57;;;;;;;12.77;2.65;;;9.80;99.90;;;;;;7357640;32;20500;-65
2022/05/30 05:35:59;;;;;;;11.18;2.40;;;9.80;99.90;;;;;;7365551;32;20099;-66
2022/05/30 05:40:01;;;;;;;10.77;3.83;;;10.00;99.90;;;;;;7352265;32;20738;-63
2022/05/30 05:44:03;;;;;;;8.95;2.33;;;10.20;99.90;;;;;;7347806;32;20111;-64
2022/05/30 05:48:06;;;;;;;6.90;1.98;;;10.30;99.90;;;;;;7355486;32;20421;-63
2022/05/30 05:52:08;;;;;;;9.25;1.95;;;10.40;99.90;;;;;;7339235;32;20099;-63
2022/05/30 05:56:15;;;;;;;10.98;2.47;;;10.60;99.90;;;;;;7360954;32;22234;-63
2022/05/30 06:00:18;;;;;;;11.20;2.42;;;10.60;99.90;;;;;;7347639;32;20152;-62
2022/05/30 06:04:20;;;;;;;9.68;2.97;;;10.60;99.90;;;;;;7356973;32;20541;-62
2022/05/30 06:08:21;;;;;;;10.70;2.70;;;10.70;99.90;;;;;;7362462;32;20255;-64
2022/05/30 06:12:23;;;;;;;12.40;2.83;;;10.70;99.90;;;;;;7341483;32;20240;-63
2022/05/30 06:16:28;;;;;;;12.15;1.98;;;10.80;99.90;;;;;;7357357;32;20210;-63
2022/05/30 06:20:30;;;;;;;14.18;2.97;;;11.00;99.90;;;;;;7349028;32;20126;-62
2022/05/30 06:24:32;;;;;;;50.17;7.65;;;11.20;99.90;;;;;;7343836;32;20598;-62
2022/05/30 06:28:35;;;;;;;14.18;2.95;;;11.30;99.90;;;;;;7356045;32;20095;-62
2022/05/30 06:32:37;;;;;;;13.55;2.80;;;11.40;99.90;;;;;;7345240;32;20529;-62
2022/05/30 06:36:42;;;;;;;11.07;2.20;;;11.50;99.90;;;;;;7359092;32;20147;-63
2022/05/30 06:40:44;;;;;;;9.02;2.40;;;11.50;99.90;;;;;;7358804;32;20111;-63
2022/05/30 06:44:45;;;;;;;9.52;2.00;;;11.50;99.90;;;;;;7354178;32;20114;-63
2022/05/30 06:48:48;;;;;;;13.20;1.90;;;11.70;99.90;;;;;;7360804;32;20107;-63
2022/05/30 06:52:50;;;;;;;9.73;1.98;;;11.60;99.90;;;;;;7362560;32;20249;-63
2022/05/30 07:01:13;;;;;;;11.80;2.53;;;11.60;99.90;;;;;;7356582;32;20099;-63
2022/05/30 07:05:15;;;;;;;8.77;2.12;;;11.50;99.90;;;;;;7361813;32;20122;-64
2022/05/30 07:09:17;;;;;;;7.90;1.60;;;11.80;99.90;;;;;;7357300;32;20238;-63
2022/05/30 07:13:19;;;;;;;8.93;1.77;;;12.00;99.90;;;;;;7338996;32;20099;-63
2022/05/30 07:17:21;;;;;;;11.00;1.90;;;12.30;99.90;;;;;;7362466;32;20224;-61
2022/05/30 07:21:22;;;;;;;7.35;1.70;;;12.50;99.90;;;;;;7350920;32;20234;-63
2022/05/30 07:25:24;;;;;;;9.60;1.60;;;12.40;99.90;;;;;;7360017;32;20121;-61
2022/05/30 07:29:28;;;;;;;14.52;2.20;;;12.60;99.90;;;;;;7358945;32;20104;-62
2022/05/30 07:33:31;;;;;;;11.30;2.10;;;12.50;99.90;;;;;;7360985;32;20161;-62
2022/05/30 07:37:32;;;;;;;14.13;3.10;;;12.70;99.90;;;;;;7356733;32;20709;-61
2022/05/30 07:41:38;;;;;;;7.07;2.50;;;12.50;99.90;;;;;;7357882;32;20122;-62
2022/05/30 07:45:40;;;;;;;13.77;2.22;;;12.90;99.90;;;;;;7359175;32;20443;-62
2022/05/30 07:49:42;;;;;;;11.27;2.58;;;13.10;99.90;;;;;;7361018;32;20496;-62
2022/05/30 07:53:44;;;;;;;19.37;2.78;;;12.50;99.90;;;;;;7363059;32;20157;-61
2022/05/30 07:57:53;;;;;;;16.27;4.40;;;12.30;99.90;;;;;;7359716;32;20127;-62
2022/05/30 08:01:57;;;;;;;15.73;6.40;;;12.60;99.90;;;;;;7369016;32;20900;-62
2022/05/30 08:06:09;;;;;;;14.48;6.68;;;12.60;99.90;;;;;;7367418;32;20229;-64
2022/05/30 08:10:13;;;;;;;13.27;4.80;;;12.50;99.90;;;;;;7371665;32;20132;-62
2022/05/30 08:14:15;;;;;;;10.35;4.43;;;12.60;99.90;;;;;;7362240;32;20332;-62
2022/05/30 08:18:18;;;;;;;17.45;4.90;;;12.80;99.90;;;;;;7371522;32;20107;-61
2022/05/30 08:22:22;;;;;;;8.15;3.42;;;12.90;99.90;;;;;;7362110;32;20129;-61
2022/05/30 08:26:23;;;;;;;13.50;3.97;;;13.00;99.90;;;;;;7342421;32;20174;-62
2022/05/30 08:30:25;;;;;;;11.85;3.50;;;13.20;99.90;;;;;;7355413;32;20240;-61
2022/05/30 08:34:27;;;;;;;13.00;2.97;;;13.50;99.90;;;;;;7359723;32;20216;-61
2022/05/30 08:38:33;;;;;;;9.98;2.80;;;14.40;99.90;;;;;;7356105;32;20095;-62
2022/05/30 08:42:35;;;;;;;10.50;2.87;;;15.40;99.90;;;;;;7355531;32;20095;-62
2022/05/30 08:46:55;;;;;;;9.45;2.10;;;16.00;99.90;;;;;;7348942;32;20163;-62
2022/05/30 08:51:14;;;;;;;8.82;2.10;;;16.10;99.90;;;;;;7355790;32;20099;-61
2022/05/30 08:55:49;;;;;;;8.90;2.42;;;16.70;99.90;;;;;;7355105;32;20172;-63
2022/05/30 08:59:57;;;;;;;7.37;1.90;;;17.20;99.90;;;;;;7360643;32;20135;-63
2022/05/30 09:04:09;;;;;;;6.45;2.55;;;18.20;97.90;;;;;;7357097;32;20098;-63
2022/05/30 09:08:18;;;;;;;8.73;2.90;;;18.50;91.40;;;;;;7356547;32;20596;-63
2022/05/30 09:12:34;;;;;;;9.40;3.50;;;19.00;90.40;;;;;;7343230;32;20509;-62
2022/05/30 09:16:41;;;;;;;7.53;2.85;;;19.20;82.70;;;;;;7355838;32;20141;-62
2022/05/30 09:20:43;;;;;;;7.90;3.40;;;18.30;90.20;;;;;;7359585;32;20568;-62
2022/05/30 09:25:55;;;;;;;9.38;3.90;;;17.00;94.40;;;;;;7352845;32;20125;-63
2022/05/30 09:29:16;;;;;;;10.13;4.47;;;16.00;97.40;;;;;;7363908;32;20103;-62
2022/05/30 09:33:31;;;;;;;14.40;5.00;;;15.40;99.90;;;;;;7357667;32;20118;-63
2022/05/30 09:37:38;;;;;;;9.98;4.37;;;14.90;99.90;;;;;;7358621;32;20264;-63
2022/05/30 09:41:40;;;;;;;9.48;3.75;;;14.30;99.90;;;;;;7358841;32;20129;-62
2022/05/30 09:45:42;;;;;;;9.77;4.32;;;14.40;99.90;;;;;;7366947;32;20567;-62
2022/05/30 09:49:47;;;;;;;9.23;3.60;;;14.80;99.90;;;;;;7359515;32;20313;-60
2022/05/30 09:53:50;;;;;;;6.00;3.10;;;15.10;99.90;;;;;;7358657;32;20334;-62
2022/05/30 09:57:53;;;;;;;9.88;2.70;;;15.40;99.90;;;;;;7361312;32;20540;-62
2022/05/30 10:01:55;;;;;;;9.48;2.37;;;15.00;99.90;;;;;;7364820;32;20206;-62
2022/05/30 10:06:23;;;;;;;6.43;1.50;;;14.50;99.90;;;;;;7368388;32;20174;-62
2022/05/30 10:10:37;;;;;;;5.47;1.50;;;14.40;99.90;;;;;;7357923;32;20157;-62
2022/05/30 10:14:40;;;;;;;6.80;1.60;;;14.00;99.90;;;;;;7358231;32;20122;-63
2022/05/30 10:18:55;;;;;;;8.88;1.50;;;13.80;99.90;;;;;;7352592;32;20103;-63
2022/05/30 10:28:15;;;;;;;9.57;1.60;;;13.80;99.90;;;;;;7340890;32;20492;-63
2022/05/30 10:32:32;;;;;;;8.68;1.65;;;13.90;99.90;;;;;;7352773;32;20155;-63
2022/05/30 10:36:41;;;;;;;5.95;1.52;;;14.00;99.90;;;;;;7358983;32;20123;-62
2022/05/30 10:40:58;;;;;;;3.72;1.08;;;14.40;99.90;;;;;;7352126;32;20855;-62
2022/05/30 10:45:11;;;;;;;3.28;1.25;;;14.50;98.30;;;;;;7355908;32;20103;-61
2022/05/30 10:49:16;;;;;;;7.07;1.50;;;14.20;99.90;;;;;;7356344;32;20124;-62
2022/05/30 10:53:37;;;;;;;3.90;1.00;;;14.90;99.90;;;;;;7364338;32;20506;-63
2022/05/30 10:57:47;;;;;;;2.03;0.70;;;15.90;99.90;;;;;;7358037;32;20104;-63
2022/05/30 11:02:05;;;;;;;4.15;0.68;;;16.70;94.10;;;;;;7362139;32;20157;-63
2022/05/30 11:06:18;;;;;;;2.35;0.68;;;17.60;91.50;;;;;;7357525;32;20435;-64
2022/05/30 11:10:54;;;;;;;4.82;0.68;;;16.90;86.60;;;;;;7361547;32;20127;-63
2022/05/30 11:15:25;;;;;;;4.25;0.70;;;16.70;90.50;;;;;;7361227;32;20099;-64
2022/05/30 11:20:08;;;;;;;3.25;0.60;;;17.40;88.10;;;;;;7357642;32;20581;-64
2022/05/30 11:24:10;;;;;;;3.07;0.50;;;17.60;86.60;;;;;;7366206;32;20152;-64
2022/05/30 11:28:27;;;;;;;3.28;0.82;;;17.10;89.70;;;;;;7356710;32;21330;-66
2022/05/30 11:32:47;;;;;;;3.53;0.77;;;16.40;91.50;;;;;;7364376;32;20452;-64
2022/05/30 11:37:05;;;;;;;3.15;0.88;;;16.10;91.20;;;;;;7363426;32;20099;-63
2022/05/30 11:41:15;;;;;;;4.62;0.93;;;15.90;92.40;;;;;;7359654;32;20125;-64
2022/05/30 11:45:44;;;;;;;5.28;0.90;;;15.70;94.20;;;;;;7357372;32;20099;-63
2022/05/30 11:50:19;;;;;;;3.75;0.70;;;15.40;94.50;;;;;;7358824;32;20151;-63
2022/05/30 11:54:45;;;;;;;3.60;0.70;;;15.50;99.10;;;;;;7352451;32;20113;-64
2022/05/30 11:59:12;;;;;;;4.40;0.80;;;15.70;95.50;;;;;;7342902;32;20546;-64
2022/05/30 12:03:45;;;;;;;4.10;0.80;;;16.30;96.50;;;;;;7357557;32;20281;-64
2022/05/30 12:08:22;;;;;;;2.55;0.65;;;16.60;93.90;;;;;;7358916;32;20103;-64
2022/05/30 12:12:54;;;;;;;3.28;1.05;;;16.30;94.60;;;;;;7326102;32;20190;-62
2022/05/30 12:17:05;;;;;;;4.57;0.98;;;15.90;93.60;;;;;;7355705;32;20544;-62
2022/05/30 12:25:36;;;;;;;4.55;1.00;;;16.10;96.30;;;;;;7359235;32;20187;-64
2022/05/30 12:29:37;;;;;;;3.33;0.73;;;16.20;93.10;;;;;;7352831;32;20103;-63
2022/05/30 12:33:48;;;;;;;4.97;0.80;;;15.90;95.20;;;;;;7348838;32;20111;-63
2022/05/30 12:38:03;;;;;;;3.42;0.90;;;15.80;95.90;;;;;;7359886;32;20175;-63
2022/05/30 12:42:08;;;;;;;5.22;0.90;;;16.10;96.60;;;;;;7367976;32;20221;-63
2022/05/30 12:46:31;;;;;;;4.93;0.85;;;16.10;93.80;;;;;;7353176;32;20125;-56
2022/05/30 12:51:00;;;;;;;4.70;0.70;;;16.30;92.70;;;;;;7357181;32;20197;-56
2022/05/30 12:55:11;;;;;;;4.37;1.00;;;16.40;93.80;;;;;;7341985;32;20103;-62
2022/05/30 12:59:19;;;;;;;3.37;0.85;;;16.50;83.90;;;;;;7347646;32;20123;-62
2022/05/30 13:03:33;;;;;;;3.78;0.93;;;15.90;86.60;;;;;;7362121;32;20103;-62
2022/05/30 13:07:35;;;;;;;3.85;0.77;;;16.50;87.20;;;;;;7359972;32;20153;-63
2022/05/30 13:12:08;;;;;;;7.00;0.95;;;16.50;90.40;;;;;;7358565;32;20272;-63
2022/05/30 13:16:24;;;;;;;3.40;0.68;;;17.10;84.90;;;;;;7362355;32;20099;-63
2022/05/30 13:20:46;;;;;;;6.18;1.80;;;18.10;84.00;;;;;;7361095;32;20118;-63
2022/05/30 13:24:47;;;;;;;4.68;0.95;;;18.50;76.20;;;;;;7359847;32;20119;-63
2022/05/30 13:28:50;;;;;;;4.30;0.95;;;17.90;85.40;;;;;;7367879;32;20428;-63
2022/05/30 13:32:52;;;;;;;4.85;0.80;;;17.40;85.10;;;;;;7356183;32;20111;-63
2022/05/30 13:36:56;;;;;;;3.30;0.73;;;16.90;83.10;;;;;;7345554;32;20213;-63
2022/05/30 13:40:57;;;;;;;4.80;0.80;;;16.60;86.50;;;;;;7358624;32;20202;-62
2022/05/30 13:45:09;;;;;;;5.18;1.02;;;16.40;91.80;;;;;;7354821;32;20103;-63
2022/05/30 13:49:11;;;;;;;3.95;1.10;;;16.00;91.10;;;;;;7358173;32;20151;-63
2022/05/30 13:53:16;;;;;;;3.25;1.08;;;15.90;91.50;;;;;;7358578;32;20190;-63
2022/05/30 13:57:18;;;;;;;4.95;1.67;;;15.80;90.30;;;;;;7349440;32;20106;-64
2022/05/30 14:01:23;;;;;;;7.65;1.70;;;15.60;92.30;;;;;;7340066;32;20441;-63
2022/05/30 14:05:38;;;;;;;6.78;1.75;;;15.70;90.80;;;;;;7234439;32;20300;-63
2022/05/30 14:09:40;;;;;;;5.47;1.37;;;15.70;88.20;;;;;;7241029;32;20120;-63
2022/05/30 14:13:45;;;;;;;4.45;0.90;;;16.10;92.10;;;;;;7237505;32;20112;-63
2022/05/30 14:17:50;;;;;;;5.00;0.77;;;16.50;90.20;;;;;;7270505;32;20135;-64
2022/05/30 14:21:57;;;;;;;4.97;1.00;;;16.70;90.00;;;;;;7261841;32;20108;-63
2022/05/30 14:25:59;;;;;;;5.07;0.95;;;17.00;83.70;;;;;;7231775;32;20168;-63
2022/05/30 14:30:06;;;;;;;4.85;0.90;;;16.70;90.70;;;;;;7277907;32;20120;-63
2022/05/30 14:34:07;;;;;;;3.87;1.45;;;16.50;84.90;;;;;;7236051;32;20101;-64
2022/05/30 14:38:22;;;;;;;3.25;0.80;;;16.50;82.20;;;;;;7235790;32;20101;-63
2022/05/30 14:42:26;;;;;;;5.18;0.90;;;16.10;86.80;;;;;;7236338;32;20246;-63
2022/05/30 14:46:37;;;;;;;5.75;0.90;;;16.00;90.00;;;;;;7271192;32;20421;-63
2022/05/30 14:50:43;;;;;;;4.22;1.08;;;16.30;85.20;;;;;;7233847;32;20371;-63
2022/05/30 14:54:51;;;;;;;3.62;1.27;;;16.10;89.00;;;;;;7234683;32;20200;-64
2022/05/30 14:59:02;;;;;;;3.45;0.93;;;15.90;86.50;;;;;;7229561;32;20241;-63
2022/05/30 15:04:20;;;;;;;3.03;0.95;;;16.00;89.50;;;;;;7315110;32;20111;-63
2022/05/30 15:07:50;;;;;;;4.97;0.90;;;16.60;83.60;;;;;;7351572;32;21838;-63
2022/05/30 15:11:52;;;;;;;4.82;1.00;;;16.60;83.00;;;;;;7353430;32;20107;-63
2022/05/30 15:15:54;;;;;;;3.30;0.88;;;16.70;81.60;;;;;;7357850;32;20270;-63
2022/05/30 15:19:56;;;;;;;4.78;1.00;;;16.70;85.50;;;;;;7362957;32;20103;-63
2022/05/30 15:23:58;;;;;;;4.00;0.73;;;16.60;86.00;;;;;;7361316;32;20398;-63
2022/05/30 15:28:00;;;;;;;5.28;1.30;;;16.70;89.30;;;;;;7359817;32;20294;-63
2022/05/30 15:32:05;;;;;;;4.82;1.15;;;16.80;80.10;;;;;;7347528;32;20365;-64
2022/05/30 15:36:07;;;;;;;3.15;0.70;;;16.50;81.80;;;;;;7359345;32;20135;-63
2022/05/30 15:40:28;;;;;;;3.15;0.70;;;16.40;79.50;;;;;;7352922;32;20801;-63
2022/05/30 15:44:34;;;;;;;3.97;0.90;;;16.10;83.50;;;;;;7357311;32;20099;-63
2022/05/30 15:48:36;;;;;;;6.32;0.80;;;16.10;87.40;;;;;;7355507;32;20738;-63
2022/05/30 15:57:18;;;;;;;6.80;0.88;;;16.10;79.70;;;;;;7357391;32;20222;-63
2022/05/30 16:01:20;;;;;;;6.80;0.90;;;16.10;83.30;;;;;;7354882;32;20436;-63
2022/05/30 16:05:22;;;;;;;5.30;0.90;;;16.00;81.70;;;;;;7359096;32;20148;-57
2022/05/30 16:09:29;;;;;;;9.90;5.15;;;15.80;90.50;;;;;;7357353;32;20504;-64
2022/05/30 16:13:31;;;;;;;3.12;0.80;;;15.90;85.50;;;;;;7357614;32;20161;-64
2022/05/30 16:17:34;;;;;;;3.92;0.82;;;15.90;85.80;;;;;;7348119;32;20202;-63
2022/05/30 16:21:36;;;;;;;3.45;0.70;;;15.90;84.40;;;;;;7349814;32;20224;-63
2022/05/30 16:25:37;;;;;;;3.62;0.80;;;15.80;84.70;;;;;;7357820;32;20199;-63
2022/05/30 16:29:39;;;;;;;4.43;1.08;;;15.70;83.30;;;;;;7352526;32;20198;-62
2022/05/30 16:33:41;;;;;;;3.00;0.85;;;15.80;81.30;;;;;;7353946;32;20172;-63
2022/05/30 16:37:46;;;;;;;2.83;0.90;;;15.50;83.40;;;;;;7363562;32;20775;-64
2022/05/30 16:41:48;;;;;;;6.60;1.50;;;15.40;82.20;;;;;;7360345;32;20139;-64
2022/05/30 16:45:50;;;;;;;4.68;0.85;;;15.20;81.80;;;;;;7339892;32;20130;-64
2022/05/30 16:49:52;;;;;;;5.78;1.00;;;15.20;83.90;;;;;;7352661;32;20157;-64
2022/05/30 16:53:54;;;;;;;3.55;0.80;;;15.10;83.70;;;;;;7358035;32;20674;-63
2022/05/30 16:57:56;;;;;;;5.20;0.77;;;15.10;82.50;;;;;;7360085;32;20095;-63
2022/05/30 17:01:58;;;;;;;4.37;0.82;;;15.10;82.30;;;;;;7349567;32;20122;-63
2022/05/30 17:06:06;;;;;;;5.55;0.90;;;15.10;81.60;;;;;;7340985;32;20091;-64
2022/05/30 17:10:09;;;;;;;8.65;1.05;;;15.00;81.90;;;;;;7361038;32;20179;-63
2022/05/30 17:14:10;;;;;;;4.40;1.10;;;15.10;84.50;;;;;;7355053;32;20099;-63
2022/05/30 17:18:13;;;;;;;5.45;1.08;;;15.00;86.60;;;;;;7338930;32;20107;-64
2022/05/30 17:22:14;;;;;;;5.43;1.08;;;15.20;84.00;;;;;;7364682;32;20198;-57
2022/05/30 17:30:37;;;;;;;4.82;1.05;;;15.10;88.90;;;;;;7361522;32;20223;-57
2022/05/30 17:34:40;;;;;;;5.43;1.12;;;15.20;85.50;;;;;;7362933;32;20143;-57
2022/05/30 17:38:42;;;;;;;2.67;0.70;;;15.30;92.40;;;;;;7364389;32;20141;-57
2022/05/30 17:42:44;;;;;;;6.75;1.40;;;15.30;96.30;;;;;;7353524;32;20221;-65
2022/05/30 17:47:10;;;;;;;5.15;0.77;;;15.10;90.10;;;;;;7355410;32;20272;-65
2022/05/30 17:51:51;;;;;;;3.42;0.70;;;15.00;90.60;;;;;;7365404;32;20118;-66
2022/05/30 17:55:58;;;;;;;4.65;0.85;;;14.70;90.60;;;;;;7366433;32;20145;-65
2022/05/30 17:59:59;;;;;;;5.80;0.90;;;14.60;91.60;;;;;;7365313;32;20148;-64
2022/05/30 18:04:01;;;;;;;6.05;1.15;;;14.50;90.30;;;;;;7351299;32;20540;-66
2022/05/30 18:08:25;;;;;;;4.18;1.00;;;14.60;91.60;;;;;;7358531;32;20865;-66
2022/05/30 18:13:05;;;;;;;3.58;0.62;;;14.50;91.80;;;;;;7364843;32;20126;-65
2022/05/30 18:17:18;;;;;;;5.20;0.80;;;14.50;95.50;;;;;;7357487;32;20546;-65
2022/05/30 18:21:34;;;;;;;3.90;0.70;;;14.40;99.90;;;;;;7343076;32;20573;-65
2022/05/30 18:25:38;;;;;;;5.72;0.85;;;14.40;99.90;;;;;;7367247;32;20226;-66
2022/05/30 18:29:40;;;;;;;3.17;1.12;;;14.30;99.90;;;;;;7353475;32;20222;-65
2022/05/30 18:33:59;;;;;;;4.25;0.85;;;14.20;99.90;;;;;;7359440;32;20137;-66
2022/05/30 18:38:11;;;;;;;4.95;1.10;;;14.00;99.90;;;;;;7340549;32;20121;-65
2022/05/30 18:42:45;;;;;;;5.20;1.10;;;14.00;99.90;;;;;;7352918;32;20242;-65
2022/05/30 18:47:13;;;;;;;2.30;0.70;;;13.80;99.90;;;;;;7355987;32;20560;-64
2022/05/30 18:51:16;;;;;;;3.87;1.00;;;13.60;99.90;;;;;;7348734;32;20405;-66
2022/05/30 18:55:19;;;;;;;4.03;1.10;;;13.50;99.90;;;;;;7356299;32;20107;-67
2022/05/30 18:59:52;;;;;;;4.47;1.10;;;13.30;99.90;;;;;;7343832;32;20242;-66
2022/05/30 19:03:54;;;;;;;4.78;1.00;;;13.20;99.90;;;;;;7354160;32;20500;-65
2022/05/30 19:07:56;;;;;;;6.43;1.30;;;13.10;99.90;;;;;;7367701;32;20213;-66
2022/05/30 19:12:03;;;;;;;5.80;1.27;;;12.80;99.90;;;;;;7351207;32;20458;-65
2022/05/30 19:20:26;;;;;;;3.70;1.17;;;12.40;99.90;;;;;;7371944;32;20876;-68
2022/05/30 19:24:28;;;;;;;4.35;1.00;;;12.20;99.90;;;;;;7367831;32;20112;-67
2022/05/30 19:28:31;;;;;;;5.87;1.00;;;12.10;99.90;;;;;;7364995;32;20483;-67
2022/05/30 19:32:33;;;;;;;6.95;1.33;;;12.00;99.90;;;;;;7364309;32;20586;-66
2022/05/30 19:36:35;;;;;;;7.68;1.30;;;11.80;99.90;;;;;;7358758;32;20150;-66
2022/05/30 19:40:43;;;;;;;2.55;1.02;;;11.60;99.90;;;;;;7368604;32;20197;-66
2022/05/30 19:44:44;;;;;;;;;;;11.50;99.90;;;;;;7373232;32;20152;-67
2022/05/30 19:48:46;;;;;;;2.67;1.12;;;11.30;99.90;;;;;;7357092;32;20022;-63
2022/05/30 19:52:55;;;;;;;4.20;1.12;;;11.20;99.90;;;;;;7353133;32;20535;-63
2022/05/30 19:56:57;;;;;;;5.97;1.37;;;11.10;99.90;;;;;;7371779;32;20190;-64
2022/05/30 20:00:58;;;;;;;6.18;1.48;;;11.00;99.90;;;;;;7372714;32;20118;-62
2022/05/30 20:05:00;;;;;;;4.25;1.08;;;10.90;99.90;;;;;;7362545;32;20125;-65
2022/05/30 20:09:03;;;;;;;6.93;1.55;;;10.80;99.90;;;;;;7369768;32;20122;-65
2022/05/30 20:13:07;;;;;;;5.20;1.25;;;10.70;99.90;;;;;;7352961;32;20103;-62
2022/05/30 20:17:09;;;;;;;2.35;1.08;;;10.60;99.90;;;;;;7368650;32;20145;-64
2022/05/30 20:21:11;;;;;;;3.12;1.60;;;10.50;99.90;;;;;;7359269;32;20274;-63
2022/05/30 20:25:15;;;;;;;5.05;1.58;;;10.40;99.90;;;;;;7357733;32;20160;-64
2022/05/30 20:29:17;;;;;;;4.05;1.67;;;10.30;99.90;;;;;;7363232;32;20103;-62
2022/05/30 20:33:18;;;;;;;3.20;1.40;;;10.30;99.90;;;;;;7361120;32;20100;-65
2022/05/30 20:37:20;;;;;;;5.90;1.45;;;10.20;99.90;;;;;;7362784;32;20129;-64
2022/05/30 20:45:46;;;;;;;6.40;1.40;;;10.00;99.90;;;;;;7361425;32;20199;-63
2022/05/30 20:49:48;;;;;;;4.57;1.40;;;10.00;99.90;;;;;;7357707;32;20417;-64
2022/05/30 20:53:50;;;;;;;7.10;1.60;;;9.90;99.90;;;;;;7366369;32;20121;-65
2022/05/30 20:57:52;;;;;;;4.97;1.70;;;9.80;99.90;;;;;;7362743;32;20881;-64
2022/05/30 21:01:54;;;;;;;4.95;1.58;;;9.80;99.90;;;;;;7365058;32;20103;-65
2022/05/30 21:05:57;;;;;;;4.40;1.80;;;9.70;99.90;;;;;;7367428;32;20285;-64
2022/05/30 21:09:59;;;;;;;4.80;1.65;;;9.60;99.90;;;;;;7352641;32;20151;-62
2022/05/30 21:14:01;;;;;;;4.70;1.75;;;9.60;99.90;;;;;;7365004;32;20095;-64
2022/05/30 21:18:10;;;;;;;5.60;1.75;;;9.50;99.90;;;;;;7361746;32;20125;-64
2022/05/30 21:22:14;;;;;;;4.30;1.73;;;9.40;99.90;;;;;;7363853;32;20121;-62
2022/05/30 21:26:16;;;;;;;8.50;2.25;;;9.40;99.90;;;;;;7366533;32;20218;-62
2022/05/30 21:30:21;;;;;;;4.03;1.87;;;9.40;99.90;;;;;;7363813;32;20453;-64
2022/05/30 21:34:28;;;;;;;3.83;1.87;;;9.30;99.90;;;;;;7366864;32;20137;-63
2022/05/30 21:38:30;;;;;;;6.43;1.90;;;9.20;99.90;;;;;;7367699;32;20226;-64
2022/05/30 21:42:32;;;;;;;4.00;2.10;;;9.20;99.90;;;;;;7353751;32;20250;-63
2022/05/30 21:46:34;;;;;;;6.47;2.20;;;9.20;99.90;;;;;;7367696;32;20515;-63
2022/05/30 21:50:36;;;;;;;4.65;2.17;;;9.10;99.90;;;;;;7365711;32;20193;-64
2022/05/30 21:54:37;;;;;;;4.35;2.40;;;9.00;99.90;;;;;;7359498;32;20484;-62
2022/05/30 21:58:40;;;;;;;5.78;2.90;;;9.00;99.90;;;;;;7369895;32;20246;-64
2022/05/30 22:02:42;;;;;;;3.17;2.20;;;9.00;99.90;;;;;;7353140;32;20297;-61
2022/05/30 22:06:44;;;;;;;7.47;2.47;;;8.90;99.90;;;;;;7357585;32;20512;-62